Aviation Digital Data Service (ADDS)

Output produced by METARs form (1534 UTC 03 June 2020)
found at http://www.aviationweather.gov/metar/data/
 
Forecast for: VLVT (VIENTIANE/WATTAY, LA)
Text: TAF VLVT 031100Z 0312/0412 16004KT 8000 SCT020 SCT050
Forecast period: 1200 UTC 03 June 2020 to 1200 UTC 04 June 2020
Forecast type: FROM: standard forecast or significant change
Winds: from the SSE (160 degrees) at 5 MPH (4 knots; 2.1 m/s)
Visibility: 5 miles (8 km)
Ceiling: at least 12,000 feet AGL
Clouds: scattered clouds at 2000 feet AGL
scattered clouds at 5000 feet AGL
Weather: no significant weather forecast for this period